Eddyville, Illinois
Current Conditions -  °F | °C
As of 8:15 AM on Sunday 21 Dec 2014 (Local Time) from KHSB Reporting Station
Haze Haze  
Wind Chill: 24°   Ceiling: Unl
Heat Index: 29°   Visibility: 3mi
Dew Point: 29°   Wind: 5mph
Humidity: 99%   Direction: 80°E
Pressure: 30.27"   Gusts: NA
Location:  37.5°N, 88.59°W
Report Text: KHSB 211415Z AUTO 08004KT 3SM BR CLR M01/M02 A3027 RMK AO2 T10151017
Loading
Personal Weather Stations






























Interactive Weather Map New forecast layout! Learn more

10-Day Weather Forecast

Advertisements
Track Severe Weather on mobile